Time;durP1;ratioP1;P1;durP2;ratioP2;P2;SDS_P1;SDS_P2;PMS_P1;PMS_P2;Temp;Humidity;BMP_temperature;BMP_pressure;BME280_temperature;BME280_humidity;BME280_pressure;Samples;Min_cycle;Max_cycle;Signal;HPM_P1;HPM_P2
2022/03/10 06:33:10;;;;;;;;;;;;;;;-0.82;63.73;100111.31;5049718;28;1893;-57
2022/03/10 06:35:36;;;;;;;;;;;;;;;-0.85;62.56;100127.44;5051447;28;878;-57
2022/03/10 06:38:03;;;;;;;;;;;;;;;-0.68;61.71;100113.09;5051718;28;788;-56
2022/03/10 06:40:29;;;;;;;;;;;;;;;-0.73;61.66;100119.44;5051141;28;820;-58
2022/03/10 06:42:55;;;;;;;;;;;;;;;-0.72;60.46;100114.84;5051216;28;857;-55
2022/03/10 06:45:22;;;;;;;;;;;;;;;-0.89;62.72;100123.75;5051121;28;897;-59
2022/03/10 06:47:48;;;;;;;;;;;;;;;-0.54;62.03;100113.69;5051125;28;816;-57
2022/03/10 06:50:15;;;;;;;;;;;;;;;-0.49;60.69;100118.16;5049905;28;941;-58
2022/03/10 06:52:42;;;;;;;;;;;;;;;-0.72;60.87;100117.56;5051042;28;1906;-58
2022/03/10 06:55:09;;;;;;;;;;;;;;;-0.86;62.43;100117.69;5051154;28;878;-58
2022/03/10 06:57:35;;;;;;;;;;;;;;;-0.68;60.74;100129.38;5049761;28;1298;-58
2022/03/10 07:00:02;;;;;;;;;;;;;;;-0.62;61.05;100118.03;5049662;28;1484;-59
2022/03/10 07:02:28;;;;;;;;;;;;;;;-0.35;61.23;100110.66;5051061;28;826;-58
2022/03/10 07:04:54;;;;;;;;;;;;;;;-0.04;60.26;100169.44;5050937;28;949;-57
2022/03/10 07:07:21;;;;;;;;;;;;;;;-0.17;60.60;100138.63;5050963;28;823;-58
2022/03/10 07:09:47;;;;;;;;;;;;;;;-0.24;59.39;100125.50;5050978;28;866;-59
2022/03/10 07:12:14;;;;;;;;;;;;;;;-0.25;59.23;100131.25;5050854;28;969;-59
2022/03/10 07:14:40;;;;;;;;;;;;;;;-0.36;59.63;100119.13;5066292;28;1948;-58
2022/03/10 07:17:08;;;;;;;;;;;;;;;-0.37;59.85;100129.19;5051073;28;888;-59
2022/03/10 07:19:34;;;;;;;;;;;;;;;0.02;58.49;100142.88;5053223;28;877;-58
2022/03/10 07:22:02;;;;;;;;;;;;;;;-0.15;58.30;100139.09;5054476;28;859;-59
2022/03/10 07:24:30;;;;;;;;;;;;;;;-0.34;59.35;100120.41;5054399;28;914;-58
2022/03/10 07:26:57;;;;;;;;;;;;;;;-0.12;59.22;100130.28;5054325;28;898;-57
2022/03/10 07:29:24;;;;;;;;;;;;;;;-0.03;58.29;100124.81;5054726;28;831;-58
2022/03/10 07:31:51;;;;;;;;;;;;;;;-0.05;58.42;100140.66;5054011;28;1576;-57
2022/03/10 07:34:17;;;;;;;;;;;;;;;-0.24;58.74;100128.22;5054160;28;1918;-59
2022/03/10 07:36:44;;;;;;;;;;;;;;;-0.27;59.46;100128.06;5054365;28;823;-58
2022/03/10 07:39:11;;;;;;;;;;;;;;;-0.01;59.55;100138.88;5054132;28;881;-58
2022/03/10 07:41:37;;;;;;;;;;;;;;;0.25;58.43;100122.50;5054421;28;878;-59
2022/03/10 07:44:03;;;;;;;;;;;;;;;0.34;58.85;100122.47;5054050;28;917;-57
2022/03/10 07:46:30;;;;;;;;;;;;;;;0.52;57.56;100118.56;5053937;28;941;-55
2022/03/10 07:48:56;;;;;;;;;;;;;;;0.74;58.06;100139.25;5053940;28;1025;-57
2022/03/10 07:51:23;;;;;;;;;;;;;;;0.58;56.34;100130.06;5053947;28;910;-56
2022/03/10 07:53:49;;;;;;;;;;;;;;;0.32;57.96;100155.44;5053729;28;1909;-58
2022/03/10 07:56:16;;;;;;;;;;;;;;;0.57;57.33;100102.03;5053983;28;815;-57
2022/03/10 07:58:43;;;;;;;;;;;;;;;0.81;56.66;100123.22;5053789;28;891;-56
2022/03/10 08:01:09;;;;;;;;;;;;;;;0.84;56.22;100101.94;5053701;28;964;-57
2022/03/10 08:03:37;;;;;;;;;;;;;;;0.95;56.98;100114.00;5053761;28;779;-58
2022/03/10 08:06:04;;;;;;;;;;;;;;;1.23;56.82;100122.47;5053720;28;843;-57
2022/03/10 08:08:31;;;;;;;;;;;;;;;1.02;56.42;100100.66;5053956;28;878;-55
2022/03/10 08:10:57;;;;;;;;;;;;;;;0.84;55.72;100131.84;5053557;28;907;-57
2022/03/10 08:13:26;;;;;;;;;;;;;;;0.68;56.39;100118.78;5053571;28;1902;-58
2022/03/10 08:15:55;;;;;;;;;;;;;;;0.76;55.70;100141.66;5053340;28;988;-57
2022/03/10 08:18:23;;;;;;;;;;;;;;;0.89;55.72;100124.28;5053927;28;944;-57
2022/03/10 08:20:50;;;;;;;;;;;;;;;1.07;55.79;100103.22;5053320;28;1262;-57
2022/03/10 08:23:18;;;;;;;;;;;;;;;0.99;55.10;100110.28;5053360;28;862;-53
2022/03/10 08:25:45;;;;;;;;;;;;;;;0.94;56.31;100123.28;5053248;28;902;-59
2022/03/10 08:28:11;;;;;;;;;;;;;;;1.22;54.13;100099.09;5053347;28;806;-57
2022/03/10 08:30:38;;;;;;;;;;;;;;;0.90;54.68;100101.41;5052982;28;932;-57
2022/03/10 08:33:05;;;;;;;;;;;;;;;0.95;55.23;100084.88;5052834;28;1906;-58
2022/03/10 08:47:48;;;;;;;;;;;;;;;1.43;50.96;100120.88;5052955;28;626;-58
2022/03/10 08:50:17;;;;;;;;;;;;;;;1.32;49.72;100134.09;5052736;28;1089;-57
2022/03/10 08:52:43;;;;;;;;;;;;;;;1.30;51.31;100124.66;5052722;28;1991;-57
2022/03/10 08:55:11;;;;;;;;;;;;;;;1.29;49.85;100153.03;5052745;28;1058;-56
2022/03/10 08:57:39;;;;;;;;;;;;;;;1.36;49.82;100143.19;5052678;28;920;-59
2022/03/10 09:03:08;;;;;;;;;;;;;;;1.34;49.42;100101.06;5052599;28;669;-58
2022/03/10 09:05:36;;;;;;;;;;;;;;;1.30;49.90;100098.25;5052537;28;922;-58
2022/03/10 09:08:03;;;;;;;;;;;;;;;1.69;49.17;100128.03;5052752;28;942;-57
2022/03/10 09:10:30;;;;;;;;;;;;;;;1.94;50.15;100112.53;5052492;28;867;-59
2022/03/10 09:12:56;;;;;;;;;;;;;;;2.20;49.37;100125.91;5052549;28;1914;-58
2022/03/10 09:15:22;;;;;;;;;;;;;;;2.21;48.54;100143.88;5052333;28;826;-55
2022/03/10 09:17:49;;;;;;;;;;;;;;;1.84;48.38;100111.84;5052214;28;1310;-58
2022/03/10 09:20:16;;;;;;;;;;;;;;;1.74;49.05;100142.25;5052343;28;820;-58
2022/03/10 09:22:42;;;;;;;;;;;;;;;1.60;49.04;100130.81;5052236;28;803;-57
2022/03/10 09:25:09;;;;;;;;;;;;;;;1.70;48.54;100135.84;5052309;28;823;-58
2022/03/10 09:27:39;;;;;;;;;;;;;;;1.80;48.36;100140.13;5052107;28;992;-59
2022/03/10 09:30:08;;;;;;;;;;;;;;;1.88;48.86;100143.88;5052036;28;912;-58
2022/03/10 09:32:35;;;;;;;;;;;;;;;1.86;49.75;100127.06;5051818;28;2055;-59
2022/03/10 09:35:03;;;;;;;;;;;;;;;1.93;47.99;100117.22;5052017;28;855;-57
2022/03/10 09:37:29;;;;;;;;;;;;;;;1.64;48.18;100153.53;5051919;28;915;-57
2022/03/10 09:39:55;;;;;;;;;;;;;;;1.91;48.96;100135.03;5051823;28;881;-57
2022/03/10 09:42:24;;;;;;;;;;;;;;;2.04;49.47;100166.66;5051378;28;897;-59
2022/03/10 09:44:53;;;;;;;;;;;;;;;1.96;46.98;100192.88;5051600;28;925;-59
2022/03/10 09:47:20;;;;;;;;;;;;;;;1.85;46.60;100169.88;5051788;28;879;-60
2022/03/10 09:49:46;;;;;;;;;;;;;;;1.89;46.94;100164.56;5051794;28;1024;-59
2022/03/10 09:52:13;;;;;;;;;;;;;;;2.00;46.55;100171.19;5051679;28;937;-59
2022/03/10 09:54:39;;;;;;;;;;;;;;;2.80;45.87;100169.97;5051658;28;1909;-59
2022/03/10 09:57:07;;;;;;;;;;;;;;;2.63;45.18;100171.78;5051935;28;885;-57
2022/03/10 09:59:34;;;;;;;;;;;;;;;2.23;44.90;100172.38;5051622;28;938;-54
2022/03/10 10:02:03;;;;;;;;;;;;;;;2.37;46.22;100188.47;5051589;28;1112;-58
2022/03/10 10:04:30;;;;;;;;;;;;;;;2.54;46.32;100170.28;5051479;28;921;-59
2022/03/10 10:07:04;;;;;;;;;;;;;;;2.25;46.76;100172.84;5051520;28;926;-58
2022/03/10 10:09:56;;;;;;;;;;;;;;;2.15;46.93;100176.00;5066894;28;902;-58
2022/03/10 10:12:27;;;;;;;;;;;;;;;2.17;46.32;100200.22;5051410;28;906;-58
2022/03/10 10:14:54;;;;;;;;;;;;;;;2.07;47.36;100167.91;5051449;28;945;-59
2022/03/10 10:17:29;;;;;;;;;;;;;;;2.07;46.36;100174.19;5051636;28;1033;-58
2022/03/10 10:19:57;;;;;;;;;;;;;;;1.98;45.82;100163.31;5050067;28;1191;-56
2022/03/10 10:22:24;;;;;;;;;;;;;;;2.29;46.26;100172.97;5051369;28;1021;-59
2022/03/10 10:24:50;;;;;;;;;;;;;;;2.77;44.81;100171.44;5051917;28;775;-58
2022/03/10 10:27:25;;;;;;;;;;;;;;;3.13;44.65;100174.50;5051585;28;875;-60
2022/03/10 10:29:56;;;;;;;;;;;;;;;3.25;43.90;100175.28;5051298;28;807;-60
2022/03/10 10:32:25;;;;;;;;;;;;;;;3.16;43.90;100187.47;5051022;28;1259;-60
2022/03/10 10:35:24;;;;;;;;;;;;;;;2.82;43.85;100181.34;5049992;28;1349;-59
2022/03/10 10:37:52;;;;;;;;;;;;;;;2.17;45.87;100186.56;5051313;28;791;-59
2022/03/10 10:40:21;;;;;;;;;;;;;;;2.42;45.62;100176.53;5051168;28;800;-60
2022/03/10 10:42:48;;;;;;;;;;;;;;;2.52;46.11;100170.66;5051138;28;867;-59
2022/03/10 10:45:34;;;;;;;;;;;;;;;2.80;45.55;100161.78;5051116;28;874;-60
2022/03/10 10:48:12;;;;;;;;;;;;;;;2.95;46.27;100165.78;5051152;28;858;-59
2022/03/10 10:50:40;;;;;;;;;;;;;;;2.80;46.30;100161.78;5051018;28;859;-60
2022/03/10 10:53:07;;;;;;;;;;;;;;;2.95;46.02;100157.59;5051020;28;1953;-60
2022/03/10 10:55:35;;;;;;;;;;;;;;;2.64;44.06;100107.84;5055200;28;887;-56
2022/03/10 10:58:09;;;;;;;;;;;;;;;2.47;46.78;100159.94;5054919;28;862;-59
2022/03/10 11:00:43;;;;;;;;;;;;;;;2.91;44.56;100160.19;5054883;28;858;-59
2022/03/10 11:03:18;;;;;;;;;;;;;;;2.68;45.28;100156.31;5054781;28;968;-59
2022/03/10 11:05:47;;;;;;;;;;;;;;;3.21;43.74;100159.94;5054805;28;1092;-59
2022/03/10 11:08:14;;;;;;;;;;;;;;;3.32;42.21;100163.78;5054751;28;956;-60
2022/03/10 11:10:41;;;;;;;;;;;;;;;3.43;43.88;100170.34;5054687;28;913;-59
2022/03/10 11:13:07;;;;;;;;;;;;;;;3.73;44.23;100153.63;5054536;28;1889;-59
2022/03/10 11:15:34;;;;;;;;;;;;;;;3.45;44.21;100180.94;5054612;28;866;-59
2022/03/10 11:18:00;;;;;;;;;;;;;;;3.13;43.57;100172.56;5054912;28;1057;-58
2022/03/10 11:20:28;;;;;;;;;;;;;;;2.53;44.50;100182.34;5069980;28;843;-60
2022/03/10 11:22:57;;;;;;;;;;;;;;;2.48;44.36;100161.53;5054540;28;1148;-60
2022/03/10 11:25:24;;;;;;;;;;;;;;;2.73;44.75;100173.28;5054563;28;831;-60
2022/03/10 11:27:53;;;;;;;;;;;;;;;3.25;44.92;100171.78;5055101;28;775;-59
2022/03/10 11:30:23;;;;;;;;;;;;;;;3.46;42.43;100160.69;5054467;28;949;-60
2022/03/10 11:33:29;;;;;;;;;;;;;;;3.83;42.72;100176.97;5054117;28;1898;-60
2022/03/10 11:35:55;;;;;;;;;;;;;;;4.02;41.43;100179.84;5052455;28;1141;-60
2022/03/10 11:38:30;;;;;;;;;;;;;;;3.60;41.92;100179.44;5052405;28;851;-60
2022/03/10 11:40:57;;;;;;;;;;;;;;;3.22;44.71;100191.56;5051983;28;942;-60
2022/03/10 11:43:26;;;;;;;;;;;;;;;2.86;44.47;100176.81;5035262;28;1338;-60
2022/03/10 11:46:13;;;;;;;;;;;;;;;2.63;45.50;100179.97;5052239;28;854;-60
2022/03/10 11:48:39;;;;;;;;;;;;;;;3.04;45.56;100167.22;5051977;28;1964;-60
2022/03/10 11:51:12;;;;;;;;;;;;;;;2.91;43.57;100181.25;5051845;28;863;-60
2022/03/10 11:53:58;;;;;;;;;;;;;;;2.85;43.84;100173.25;5051735;28;1889;-60
2022/03/10 11:56:42;;;;;;;;;;;;;;;3.24;44.15;100167.44;5035095;28;837;-60
2022/03/10 11:59:18;;;;;;;;;;;;;;;4.01;44.86;100171.97;5051748;28;1055;-59
2022/03/10 12:01:45;;;;;;;;;;;;;;;4.52;42.61;100174.88;5051651;28;842;-60
2022/03/10 12:04:18;;;;;;;;;;;;;;;4.29;42.61;100182.91;5051159;28;873;-60
2022/03/10 12:06:57;;;;;;;;;;;;;;;3.53;43.69;100163.63;5052722;28;1126;-60
2022/03/10 12:09:30;;;;;;;;;;;;;;;2.93;46.32;100187.16;5053615;28;842;-60
2022/03/10 12:12:15;;;;;;;;;;;;;;;3.36;43.89;100178.34;5052459;28;1330;-58
2022/03/10 12:14:42;;;;;;;;;;;;;;;2.89;45.79;100188.97;5053438;28;1932;-59
2022/03/10 12:17:26;;;;;;;;;;;;;;;2.48;46.49;100183.38;5053441;28;896;-58
2022/03/10 12:20:11;;;;;;;;;;;;;;;2.40;46.11;100192.44;5053455;28;878;-59
2022/03/10 12:22:38;;;;;;;;;;;;;;;2.38;43.95;100194.72;5053295;28;851;-59
2022/03/10 12:25:18;;;;;;;;;;;;;;;2.51;42.96;100179.94;5053340;28;922;-60
2022/03/10 12:27:49;;;;;;;;;;;;;;;2.66;45.13;100170.31;5053195;28;944;-60
2022/03/10 12:30:19;;;;;;;;;;;;;;;3.32;45.50;100168.44;5051961;28;925;-60
2022/03/10 12:32:48;;;;;;;;;;;;;;;3.17;45.21;100189.06;5052942;28;1901;-59
2022/03/10 12:35:15;;;;;;;;;;;;;;;2.59;44.49;100206.34;5053133;28;1891;-60
2022/03/10 12:37:50;;;;;;;;;;;;;;;2.53;45.97;100209.63;5053127;28;842;-59
2022/03/10 12:40:18;;;;;;;;;;;;;;;2.81;42.00;100228.88;5052943;28;839;-59
2022/03/10 12:42:46;;;;;;;;;;;;;;;2.95;42.04;100215.72;5053406;28;795;-60
2022/03/10 12:45:13;;;;;;;;;;;;;;;2.79;41.86;100215.56;5053172;28;924;-59
2022/03/10 12:47:44;;;;;;;;;;;;;;;2.22;45.28;100208.19;5053284;28;846;-60
2022/03/10 12:50:11;;;;;;;;;;;;;;;1.77;45.07;100219.81;5052871;28;946;-59
2022/03/10 12:52:40;;;;;;;;;;;;;;;1.72;43.58;100222.75;5052678;28;1886;-59
2022/03/10 12:55:07;;;;;;;;;;;;;;;2.13;43.93;100215.66;5052730;28;863;-60
2022/03/10 12:57:37;;;;;;;;;;;;;;;2.63;42.92;100210.00;5052793;28;804;-59
2022/03/10 13:00:21;;;;;;;;;;;;;;;2.94;41.07;100222.28;5052657;28;863;-60
2022/03/10 13:02:48;;;;;;;;;;;;;;;3.05;40.20;100220.72;5052661;28;874;-60
2022/03/10 13:05:21;;;;;;;;;;;;;;;3.43;41.50;100216.03;5052548;28;815;-60
2022/03/10 13:07:48;;;;;;;;;;;;;;;3.76;42.28;100237.72;5052501;28;992;-60
2022/03/10 13:10:16;;;;;;;;;;;;;;;2.95;46.11;100236.78;5052395;28;983;-60
2022/03/10 13:12:44;;;;;;;;;;;;;;;1.82;48.81;100234.03;5051097;28;1965;-58
2022/03/10 13:15:31;;;;;;;;;;;;;;;0.88;51.94;100241.66;5052353;28;859;-59
2022/03/10 13:18:02;;;;;;;;;;;;;;;0.98;51.69;100235.84;5051906;28;1669;-59
2022/03/10 13:20:31;;;;;;;;;;;;;;;2.06;48.27;100229.84;5052256;28;926;-60
2022/03/10 13:22:58;;;;;;;;;;;;;;;2.53;44.53;100226.00;5052495;28;870;-60
2022/03/10 13:25:31;;;;;;;;;;;;;;;3.27;44.59;100238.59;5052247;28;870;-60
2022/03/10 13:28:03;;;;;;;;;;;;;;;2.73;44.81;100251.63;5052076;28;907;-60
2022/03/10 13:30:30;;;;;;;;;;;;;;;1.93;47.83;100239.09;5050861;28;766;-60
2022/03/10 13:33:00;;;;;;;;;;;;;;;2.06;46.30;100231.78;5051807;28;1886;-60
2022/03/10 13:35:28;;;;;;;;;;;;;;;2.10;46.12;100241.66;5052033;28;824;-59
2022/03/10 13:37:56;;;;;;;;;;;;;;;2.11;42.71;100224.16;5052025;28;847;-60
2022/03/10 13:40:23;;;;;;;;;;;;;;;2.29;42.72;100233.00;5051779;28;910;-60
2022/03/10 13:42:51;;;;;;;;;;;;;;;2.52;41.36;100238.84;5051920;28;1314;-60
2022/03/10 13:45:17;;;;;;;;;;;;;;;2.50;40.36;100243.84;5051937;28;819;-60
2022/03/10 13:47:53;;;;;;;;;;;;;;;2.38;39.81;100262.91;5051889;28;823;-59
2022/03/10 13:50:21;;;;;;;;;;;;;;;2.24;40.99;100247.63;5051970;28;898;-60
2022/03/10 13:52:52;;;;;;;;;;;;;;;2.44;40.98;100229.63;5051676;28;1897;-59
2022/03/10 13:55:24;;;;;;;;;;;;;;;2.93;40.88;100261.69;5051679;28;803;-59
2022/03/10 13:57:50;;;;;;;;;;;;;;;2.90;41.64;100294.31;5051704;28;894;-58
2022/03/10 14:00:24;;;;;;;;;;;;;;;2.38;46.65;100296.44;5051736;28;831;-59
2022/03/10 14:02:50;;;;;;;;;;;;;;;1.04;55.46;100288.19;5051640;28;858;-58
2022/03/10 14:05:17;;;;;;;;;;;;;;;0.85;51.70;100275.75;5051843;28;954;-59
2022/03/10 14:08:12;;;;;;;;;;;;;;;0.89;50.19;100289.50;5050230;28;1295;-58
2022/03/10 14:10:40;;;;;;;;;;;;;;;1.25;45.85;100275.44;5051487;28;874;-58
2022/03/10 14:13:07;;;;;;;;;;;;;;;1.61;46.15;100288.53;5051374;28;1949;-58
2022/03/10 14:15:35;;;;;;;;;;;;;;;1.57;44.37;100281.34;5051476;28;859;-58
2022/03/10 14:18:12;;;;;;;;;;;;;;;1.05;45.83;100285.13;5051684;28;998;-58
2022/03/10 14:20:42;;;;;;;;;;;;;;;1.53;45.49;100283.13;5051431;28;792;-59
2022/03/10 14:23:09;;;;;;;;;;;;;;;2.02;44.34;100289.69;5051399;28;874;-59
2022/03/10 14:25:53;;;;;;;;;;;;;;;1.57;44.04;100294.97;5051453;28;882;-58
2022/03/10 14:28:36;;;;;;;;;;;;;;;1.88;43.48;100294.63;5053328;28;972;-58
2022/03/10 14:31:13;;;;;;;;;;;;;;;1.80;42.36;100298.19;5055319;28;1218;-59
2022/03/10 14:33:40;;;;;;;;;;;;;;;1.05;43.89;100284.34;5055360;28;2372;-58
2022/03/10 14:36:09;;;;;;;;;;;;;;;0.45;45.16;100302.41;5055391;28;811;-59
2022/03/10 14:38:36;;;;;;;;;;;;;;;0.28;46.66;100293.16;5055922;28;772;-59
2022/03/10 14:41:04;;;;;;;;;;;;;;;0.87;45.31;100299.94;5055766;28;785;-59
2022/03/10 14:43:31;;;;;;;;;;;;;;;1.38;44.61;100315.25;5055613;28;807;-59
2022/03/10 14:45:56;;;;;;;;;;;;;;;1.75;43.42;100341.97;5055901;28;780;-59
2022/03/10 14:48:23;;;;;;;;;;;;;;;2.11;45.09;100333.25;5055164;28;863;-59
2022/03/10 14:50:50;;;;;;;;;;;;;;;1.54;53.52;100367.28;5053967;28;812;-59
2022/03/10 14:53:16;;;;;;;;;;;;;;;0.11;62.82;100361.13;5070520;28;1957;-58
2022/03/10 14:55:43;;;;;;;;;;;;;;;-1.05;66.14;100354.03;5055221;28;898;-59
2022/03/10 14:58:09;;;;;;;;;;;;;;;-1.42;65.23;100366.09;5055140;28;815;-58
2022/03/10 15:00:35;;;;;;;;;;;;;;;-1.63;64.27;100361.13;5055058;28;894;-59
2022/03/10 15:03:04;;;;;;;;;;;;;;;-1.74;64.91;100355.16;5054878;28;870;-58
2022/03/10 15:05:30;;;;;;;;;;;;;;;-1.74;62.63;100370.63;5054840;28;944;-59
2022/03/10 15:07:57;;;;;;;;;;;;;;;-1.61;61.06;100368.97;5054668;28;824;-58
2022/03/10 15:10:24;;;;;;;;;;;;;;;-1.47;60.59;100370.53;5054760;28;925;-58
2022/03/10 15:12:51;;;;;;;;;;;;;;;-1.32;60.04;100384.84;5054541;28;1885;-58
2022/03/10 15:15:17;;;;;;;;;;;;;;;-1.15;58.62;100376.81;5054590;28;910;-58
2022/03/10 15:17:43;;;;;;;;;;;;;;;-1.16;56.13;100377.09;5054935;28;926;-58
2022/03/10 15:20:11;;;;;;;;;;;;;;;-1.28;56.38;100381.19;5054625;28;807;-58
2022/03/10 15:22:54;;;;;;;;;;;;;;;-1.28;55.50;100388.50;5054497;28;875;-59
2022/03/10 15:25:22;;;;;;;;;;;;;;;-1.24;54.74;100390.31;5054412;28;937;-59
2022/03/10 15:27:49;;;;;;;;;;;;;;;-1.19;52.92;100383.16;5054533;28;874;-59
2022/03/10 15:30:16;;;;;;;;;;;;;;;-1.19;54.06;100377.75;5054360;28;788;-59
2022/03/10 15:32:42;;;;;;;;;;;;;;;-1.26;54.44;100392.53;5054086;28;1902;-59
2022/03/10 15:35:09;;;;;;;;;;;;;;;-1.29;53.85;100395.06;5054344;28;843;-59
2022/03/10 15:37:36;;;;;;;;;;;;;;;-1.27;54.99;100400.97;5054356;28;883;-59
2022/03/10 15:40:03;;;;;;;;;;;;;;;-1.29;53.63;100400.47;5052404;28;831;-59
2022/03/10 15:42:30;;;;;;;;;;;;;;;-1.35;53.22;100415.25;5054152;28;981;-59
2022/03/10 15:44:57;;;;;;;;;;;;;;;-1.42;53.65;100407.56;5054052;28;856;-59
2022/03/10 15:47:23;;;;;;;;;;;;;;;-1.33;52.93;100421.19;5054031;28;957;-59
2022/03/10 15:49:50;;;;;;;;;;;;;;;-1.34;51.50;100412.25;5054094;28;862;-59
2022/03/10 15:52:17;;;;;;;;;;;;;;;-1.51;52.08;100404.78;5054019;28;803;-59
2022/03/10 15:54:43;;;;;;;;;;;;;;;-1.71;53.42;100419.59;5053853;28;1886;-59
2022/03/10 15:57:10;;;;;;;;;;;;;;;-1.79;53.57;100419.50;5053918;28;857;-59
2022/03/10 15:59:36;;;;;;;;;;;;;;;-1.88;53.87;100430.25;5053864;28;894;-59
2022/03/10 16:02:04;;;;;;;;;;;;;;;-1.90;54.50;100433.28;5053853;28;851;-59
2022/03/10 16:04:30;;;;;;;;;;;;;;;-2.01;55.27;100439.22;5053794;28;823;-60
2022/03/10 16:06:57;;;;;;;;;;;;;;;-2.03;55.72;100414.31;5053632;28;850;-60
2022/03/10 16:09:23;;;;;;;;;;;;;;;-1.94;55.62;100443.13;5054008;28;819;-60
2022/03/10 16:11:50;;;;;;;;;;;;;;;-1.98;55.42;100444.84;5053658;28;799;-59
2022/03/10 16:14:16;;;;;;;;;;;;;;;-1.97;55.27;100451.06;5053625;28;1890;-60
2022/03/10 16:16:43;;;;;;;;;;;;;;;-1.95;55.33;100446.13;5053649;28;919;-60
2022/03/10 16:19:09;;;;;;;;;;;;;;;-1.90;55.61;100449.56;5053520;28;815;-60
2022/03/10 16:21:36;;;;;;;;;;;;;;;-1.83;54.80;100449.13;5053430;28;906;-60
2022/03/10 16:24:03;;;;;;;;;;;;;;;-1.80;55.31;100451.22;5053470;28;847;-60
2022/03/10 16:26:29;;;;;;;;;;;;;;;-1.71;55.26;100454.03;5053329;28;898;-59
2022/03/10 16:28:56;;;;;;;;;;;;;;;-1.69;55.40;100459.94;5053576;28;854;-60
2022/03/10 16:31:23;;;;;;;;;;;;;;;-1.69;55.22;100451.81;5053078;28;1399;-60
2022/03/10 16:33:49;;;;;;;;;;;;;;;-1.63;54.91;100464.16;5053185;28;1914;-59
2022/03/10 16:36:19;;;;;;;;;;;;;;;-1.74;55.51;100463.56;5053145;28;886;-60
2022/03/10 16:38:45;;;;;;;;;;;;;;;-1.92;56.19;100473.44;5053157;28;940;-60
2022/03/10 16:41:13;;;;;;;;;;;;;;;-2.07;56.46;100484.56;5052979;28;884;-60
2022/03/10 16:43:39;;;;;;;;;;;;;;;-2.02;56.34;100475.53;5053290;28;835;-60
2022/03/10 16:46:06;;;;;;;;;;;;;;;-1.86;55.73;100480.34;5051835;28;914;-60
2022/03/10 16:48:33;;;;;;;;;;;;;;;-1.72;55.84;100493.88;5053011;28;819;-60
2022/03/10 16:50:58;;;;;;;;;;;;;;;-1.60;54.87;100487.97;5052883;28;808;-59
2022/03/10 16:53:25;;;;;;;;;;;;;;;-1.51;55.30;100507.03;5052717;28;1886;-59
2022/03/10 16:55:52;;;;;;;;;;;;;;;-1.54;55.38;100505.69;5053067;28;867;-60
2022/03/10 16:58:20;;;;;;;;;;;;;;;-1.65;56.73;100515.94;5052783;28;815;-59
2022/03/10 17:00:47;;;;;;;;;;;;;;;-1.69;58.74;100535.84;5052709;28;855;-60
2022/03/10 17:03:13;;;;;;;;;;;;;;;-1.81;62.93;100555.31;5052699;28;901;-60
2022/03/10 17:05:39;;;;;;;;;;;;;;;-2.04;65.12;100554.41;5052614;28;878;-60
2022/03/10 17:08:05;;;;;;;;;;;;;;;-2.20;66.17;100543.03;5052481;28;871;-60
2022/03/10 17:10:31;;;;;;;;;;;;;;;-2.58;66.60;100507.16;5052789;28;835;-60
2022/03/10 17:12:58;;;;;;;;;;;;;;;-2.67;66.74;100529.50;5052672;28;1889;-60
2022/03/10 17:15:25;;;;;;;;;;;;;;;-2.95;67.40;100528.56;5052709;28;835;-59
2022/03/10 17:17:52;;;;;;;;;;;;;;;-3.13;68.35;100524.00;5052839;28;952;-60
2022/03/10 17:20:18;;;;;;;;;;;;;;;-3.20;68.35;100527.06;5053015;28;780;-60
2022/03/10 17:22:45;;;;;;;;;;;;;;;-3.27;68.33;100540.13;5052931;28;811;-59
2022/03/10 17:25:11;;;;;;;;;;;;;;;-3.41;68.41;100523.06;5052966;28;819;-59
2022/03/10 17:27:38;;;;;;;;;;;;;;;-3.45;68.49;100530.13;5051122;28;830;-59
2022/03/10 17:30:05;;;;;;;;;;;;;;;-3.38;67.42;100527.88;5052156;28;814;-59
2022/03/10 17:32:30;;;;;;;;;;;;;;;-3.35;67.13;100527.25;5051951;28;1246;-59
2022/03/10 17:34:57;;;;;;;;;;;;;;;-3.37;67.05;100540.28;5052036;28;1914;-59
2022/03/10 17:37:24;;;;;;;;;;;;;;;-3.39;67.33;100534.34;5050839;28;870;-60
2022/03/10 17:39:50;;;;;;;;;;;;;;;-3.38;66.84;100547.59;5050683;28;863;-59
2022/03/10 17:42:16;;;;;;;;;;;;;;;-3.48;67.06;100542.31;5051908;28;898;-60
2022/03/10 17:44:43;;;;;;;;;;;;;;;-3.56;67.19;100549.19;5051983;28;810;-60
2022/03/10 17:47:10;;;;;;;;;;;;;;;-3.57;67.23;100547.56;5051847;28;605;-60
2022/03/10 17:49:37;;;;;;;;;;;;;;;-3.59;67.31;100546.25;5051806;28;929;-59
2022/03/10 17:52:04;;;;;;;;;;;;;;;-3.62;67.27;100555.72;5051741;28;863;-60
2022/03/10 17:54:31;;;;;;;;;;;;;;;-3.61;66.80;100549.22;5051775;28;2022;-59
2022/03/10 17:56:57;;;;;;;;;;;;;;;-3.77;66.97;100545.13;5051708;28;902;-59
2022/03/10 17:59:24;;;;;;;;;;;;;;;-3.84;67.45;100555.44;5051669;28;1012;-58
2022/03/10 18:01:51;;;;;;;;;;;;;;;-3.78;67.44;100547.00;5051527;28;898;-58
2022/03/10 18:04:17;;;;;;;;;;;;;;;-3.88;67.42;100555.22;5051244;28;894;-60
2022/03/10 18:06:43;;;;;;;;;;;;;;;-3.95;67.71;100552.06;5051491;28;897;-59
2022/03/10 18:09:10;;;;;;;;;;;;;;;-3.97;68.13;100555.06;5051480;28;965;-60
2022/03/10 18:11:37;;;;;;;;;;;;;;;-3.96;68.18;100555.84;5050284;28;1326;-60
2022/03/10 18:14:03;;;;;;;;;;;;;;;-4.04;68.16;100554.56;5051672;28;1957;-60
2022/03/10 18:16:29;;;;;;;;;;;;;;;-3.98;68.27;100568.84;5051509;28;1001;-60
2022/03/10 18:18:55;;;;;;;;;;;;;;;-4.12;68.48;100556.03;5051343;28;941;-60
2022/03/10 18:21:22;;;;;;;;;;;;;;;-4.22;68.86;100566.13;5051434;28;819;-59
2022/03/10 18:23:49;;;;;;;;;;;;;;;-4.14;68.48;100568.19;5051408;28;894;-60
2022/03/10 18:26:15;;;;;;;;;;;;;;;-4.23;68.60;100567.19;5051244;28;878;-60
2022/03/10 18:28:43;;;;;;;;;;;;;;;-4.18;68.89;100569.84;5051425;28;847;-60
2022/03/10 18:31:13;;;;;;;;;;;;;;;-4.35;68.78;100573.78;5051014;28;1399;-60
2022/03/10 18:33:40;;;;;;;;;;;;;;;-4.40;69.46;100575.72;5051145;28;1975;-60
2022/03/10 18:36:06;;;;;;;;;;;;;;;-4.39;69.57;100553.06;5051289;28;894;-60
2022/03/10 18:38:32;;;;;;;;;;;;;;;-4.24;68.94;100573.69;5051230;28;907;-59
2022/03/10 18:40:58;;;;;;;;;;;;;;;-4.36;69.38;100565.97;5051122;28;836;-60
2022/03/10 18:43:25;;;;;;;;;;;;;;;-4.24;68.94;100579.91;5051278;28;800;-60
2022/03/10 18:45:51;;;;;;;;;;;;;;;-4.16;69.02;100578.44;5051139;28;887;-60
2022/03/10 18:48:17;;;;;;;;;;;;;;;-4.21;69.04;100584.72;5051184;28;851;-60
2022/03/10 18:50:44;;;;;;;;;;;;;;;-4.29;69.36;100590.72;5051089;28;914;-59
2022/03/10 18:53:11;;;;;;;;;;;;;;;-4.24;69.19;100592.59;5051067;28;2002;-59
2022/03/10 18:55:37;;;;;;;;;;;;;;;-4.32;69.16;100596.69;5051086;28;910;-59
2022/03/10 18:58:04;;;;;;;;;;;;;;;-4.33;69.29;100600.50;5051037;28;1062;-59
2022/03/10 19:00:30;;;;;;;;;;;;;;;-4.32;68.82;100599.41;5051077;28;922;-59
2022/03/10 19:02:57;;;;;;;;;;;;;;;-4.12;68.22;100601.09;5050947;28;930;-59
2022/03/10 19:05:24;;;;;;;;;;;;;;;-4.19;68.04;100601.44;5050858;28;901;-59
2022/03/10 19:07:51;;;;;;;;;;;;;;;-4.36;68.39;100601.84;5050871;28;896;-59
2022/03/10 19:10:17;;;;;;;;;;;;;;;-4.42;68.96;100594.09;5051030;28;882;-59
2022/03/10 19:12:43;;;;;;;;;;;;;;;-4.43;69.06;100600.59;5050922;28;879;-60
2022/03/10 19:15:10;;;;;;;;;;;;;;;-4.34;68.66;100601.56;5067910;28;1902;-59
2022/03/10 19:17:37;;;;;;;;;;;;;;;-4.28;68.44;100605.03;5054674;28;987;-59
2022/03/10 19:20:04;;;;;;;;;;;;;;;-4.25;68.45;100602.56;5054631;28;933;-59
2022/03/10 19:22:30;;;;;;;;;;;;;;;-4.28;68.18;100602.34;5054509;28;897;-59
2022/03/10 19:24:58;;;;;;;;;;;;;;;-4.34;68.69;100612.38;5054502;28;912;-59
2022/03/10 19:27:24;;;;;;;;;;;;;;;-4.32;68.63;100613.69;5054493;28;925;-59
2022/03/10 19:29:50;;;;;;;;;;;;;;;-4.38;68.43;100606.72;5054406;28;944;-59
2022/03/10 19:32:19;;;;;;;;;;;;;;;-4.52;68.84;100605.78;5054144;28;1212;-59
2022/03/10 19:34:45;;;;;;;;;;;;;;;-4.45;68.40;100603.56;5054110;28;1973;-59
2022/03/10 19:37:11;;;;;;;;;;;;;;;-4.60;68.77;100609.06;5054392;28;806;-59
2022/03/10 19:39:38;;;;;;;;;;;;;;;-4.60;69.31;100606.38;5054551;28;830;-59
2022/03/10 19:42:05;;;;;;;;;;;;;;;-4.59;69.02;100606.06;5054474;28;847;-59
2022/03/10 19:44:31;;;;;;;;;;;;;;;-4.65;69.18;100607.22;5054217;28;930;-59
2022/03/10 19:46:59;;;;;;;;;;;;;;;-4.63;68.97;100606.94;5054764;28;827;-59
2022/03/10 19:49:25;;;;;;;;;;;;;;;-4.54;68.65;100607.97;5054190;28;925;-59
2022/03/10 19:51:54;;;;;;;;;;;;;;;-4.45;67.91;100610.84;5054332;28;862;-59
2022/03/10 19:54:23;;;;;;;;;;;;;;;-4.31;67.29;100606.41;5053814;28;1882;-59